Time;durP1;ratioP1;P1;durP2;ratioP2;P2;SDS_P1;SDS_P2;PMS_P1;PMS_P2;Temp;Humidity;BMP_temperature;BMP_pressure;BME280_temperature;BME280_humidity;BME280_pressure;Samples;Min_cycle;Max_cycle;Signal;HPM_P1;HPM_P2
2024/01/29 00:02:30;;;;;;;6.45;3.60;;;;;;;17.07;56.33;97782.59;10362152;28;20663;-38
2024/01/29 00:07:30;;;;;;;2.10;1.42;;;;;;;17.05;56.52;97779.16;10363275;28;20517;-39
2024/01/29 00:12:31;;;;;;;2.63;1.23;;;;;;;17.05;56.38;97784.22;10361788;28;20041;-38
2024/01/29 00:17:31;;;;;;;3.40;1.50;;;;;;;17.05;56.39;97782.56;10363378;28;20045;-34
2024/01/29 00:22:32;;;;;;;5.17;1.53;;;;;;;17.05;56.34;97781.69;10362921;28;20390;-38
2024/01/29 00:27:33;;;;;;;2.47;1.87;;;;;;;17.03;56.73;97775.75;10361327;28;20679;-37
2024/01/29 00:32:33;;;;;;;2.28;1.35;;;;;;;17.00;56.80;97775.69;10362061;28;20292;-36
2024/01/29 00:37:33;;;;;;;2.60;1.77;;;;;;;17.00;56.74;97770.63;10362364;28;20038;-35
2024/01/29 00:42:34;;;;;;;5.00;1.60;;;;;;;17.01;56.98;97774.88;10361555;28;20304;-37
2024/01/29 00:47:34;;;;;;;4.40;1.70;;;;;;;16.98;56.34;97767.22;10362487;28;20030;-40
2024/01/29 00:52:35;;;;;;;3.55;1.73;;;;;;;16.99;56.16;97769.75;10362305;28;20038;-38
2024/01/29 00:57:35;;;;;;;4.00;1.67;;;;;;;17.00;56.68;97766.41;10361745;28;20038;-38
2024/01/29 01:02:35;;;;;;;3.67;1.37;;;;;;;17.01;56.79;97769.81;10360902;28;20042;-37
2024/01/29 01:07:36;;;;;;;5.70;1.90;;;;;;;17.03;56.13;97781.69;10366850;28;20065;-35
2024/01/29 01:12:36;;;;;;;6.40;1.63;;;;;;;17.02;56.59;97785.03;10368343;28;20046;-38
2024/01/29 01:17:37;;;;;;;5.90;1.20;;;;;;;17.01;56.33;97783.31;10369130;28;20323;-38
2024/01/29 01:22:38;;;;;;;4.03;1.40;;;;;;;17.03;56.21;97779.16;10367444;28;20041;-38
2024/01/29 01:27:38;;;;;;;5.30;1.40;;;;;;;17.02;56.37;97789.22;10367711;28;20044;-34
2024/01/29 01:32:38;;;;;;;3.57;1.20;;;;;;;17.02;56.58;97796.81;10367845;28;20048;-38
2024/01/29 01:37:39;;;;;;;2.83;1.40;;;;;;;17.01;56.11;97798.50;10368132;28;20502;-38
2024/01/29 01:42:41;;;;;;;3.00;2.00;;;;;;;16.99;56.82;97795.06;10367188;28;20026;-37
2024/01/29 01:47:41;;;;;;;1.83;0.85;;;;;;;17.02;56.56;97794.28;10367923;28;20038;-42
2024/01/29 01:52:42;;;;;;;1.85;1.05;;;;;;;17.00;56.11;97803.53;10367120;28;20553;-37
2024/01/29 01:57:43;;;;;;;2.58;1.00;;;;;;;17.00;56.34;97801.00;10366652;28;20037;-37
2024/01/29 02:02:43;;;;;;;2.88;1.48;;;;;;;16.99;56.72;97794.22;10366047;28;20033;-38
2024/01/29 02:07:44;;;;;;;5.47;1.63;;;;;;;16.98;56.23;97795.88;10367192;28;20482;-39
2024/01/29 02:12:45;;;;;;;2.43;0.80;;;;;;;16.98;56.57;97793.34;10366125;28;20045;-36
2024/01/29 02:17:45;;;;;;;4.22;1.30;;;;;;;16.98;56.78;97782.41;10364767;28;20030;-37
2024/01/29 02:22:45;;;;;;;3.00;1.73;;;;;;;16.96;56.56;97784.03;10362979;28;20099;-37
2024/01/29 02:27:46;;;;;;;2.17;1.23;;;;;;;16.97;56.23;97793.31;10365139;28;20038;-39
2024/01/29 02:32:46;;;;;;;2.13;1.13;;;;;;;16.94;56.73;97789.06;10365441;28;20057;-35
2024/01/29 02:37:46;;;;;;;2.07;1.00;;;;;;;16.97;56.79;97795.84;10365933;28;20046;-34
2024/01/29 02:42:47;;;;;;;3.40;1.70;;;;;;;16.95;56.47;97793.31;10364445;28;20542;-36
2024/01/29 02:47:47;;;;;;;3.03;1.40;;;;;;;16.95;56.24;97792.44;10364712;28;20026;-35
2024/01/29 02:52:48;;;;;;;3.13;1.10;;;;;;;16.96;56.53;97789.06;10361803;28;20657;-35
2024/01/29 02:57:48;;;;;;;1.80;1.02;;;;;;;16.92;56.07;97792.38;10364515;28;20487;-38
2024/01/29 03:02:48;;;;;;;4.90;1.30;;;;;;;16.93;56.73;97800.00;10364562;28;20044;-37
2024/01/29 03:07:50;;;;;;;3.73;1.30;;;;;;;16.88;56.29;97788.03;10363639;28;20030;-35
2024/01/29 03:12:52;;;;;;;2.08;1.20;;;;;;;16.95;56.83;97817.72;10361656;28;20293;-37
2024/01/29 03:17:53;;;;;;;4.28;1.17;;;;;;;16.93;56.45;97814.31;10364449;28;20040;-37
2024/01/29 03:22:53;;;;;;;3.10;1.38;;;;;;;16.95;56.29;97817.72;10362491;28;20048;-38
2024/01/29 03:27:53;;;;;;;1.80;0.87;;;;;;;16.94;56.25;97810.97;10362786;28;20113;-39
2024/01/29 03:32:56;;;;;;;1.97;1.13;;;;;;;16.96;55.34;97809.31;10363591;28;20038;-38
2024/01/29 03:37:56;;;;;;;2.63;1.20;;;;;;;16.96;55.82;97814.38;10362683;28;20080;-37
2024/01/29 03:42:57;;;;;;;2.53;1.10;;;;;;;16.97;56.44;97816.09;10363487;28;20046;-37
2024/01/29 03:47:58;;;;;;;1.93;1.40;;;;;;;16.95;55.59;97815.19;10362942;28;20030;-36
2024/01/29 03:52:59;;;;;;;3.80;1.13;;;;;;;16.96;56.17;97816.91;10361787;28;20046;-35
2024/01/29 03:57:59;;;;;;;1.85;1.05;;;;;;;16.94;55.95;97821.09;10363229;28;20049;-39
2024/01/29 04:03:03;;;;;;;1.53;1.00;;;;;;;16.94;55.92;97821.09;10361963;28;20062;-39
2024/01/29 04:08:03;;;;;;;2.53;1.10;;;;;;;16.93;56.22;97816.84;10361906;28;20327;-36
2024/01/29 04:13:04;;;;;;;2.55;0.90;;;;;;;16.92;55.62;97823.56;10361246;28;20124;-38
2024/01/29 04:18:06;;;;;;;3.95;1.05;;;;;;;16.94;55.37;97816.03;10362789;28;20449;-35
2024/01/29 04:23:09;;;;;;;2.33;1.40;;;;;;;16.93;55.75;97816.84;10361009;28;20651;-39
2024/01/29 04:28:09;;;;;;;3.83;1.08;;;;;;;16.91;56.44;97811.75;10362583;28;20034;-39
2024/01/29 04:33:10;;;;;;;4.45;1.23;;;;;;;16.90;56.46;97809.19;10361790;28;20048;-36
2024/01/29 04:38:10;;;;;;;1.67;1.00;;;;;;;16.90;56.46;97814.25;10360056;28;20046;-38
2024/01/29 04:43:10;;;;;;;2.50;0.97;;;;;;;16.98;52.53;97808.53;10366789;28;20092;-38
2024/01/29 04:48:11;;;;;;;2.50;0.77;;;;;;;17.02;50.90;97805.28;10369277;28;20030;-36
2024/01/29 04:53:12;;;;;;;1.75;1.02;;;;;;;17.06;50.64;97807.03;10364669;28;20822;-38
2024/01/29 04:58:13;;;;;;;0.95;0.82;;;;;;;17.06;50.22;97803.66;10368741;28;20046;-41
2024/01/29 05:03:14;;;;;;;1.30;0.90;;;;;;;17.11;50.47;97804.63;10367962;28;20038;-36
2024/01/29 05:08:14;;;;;;;4.60;0.97;;;;;;;17.14;49.76;97809.75;10368667;28;20018;-34
2024/01/29 05:13:15;;;;;;;2.40;0.90;;;;;;;17.19;50.14;97805.63;10368623;28;20030;-37
2024/01/29 05:18:15;;;;;;;2.20;1.23;;;;;;;17.21;49.83;97812.44;10368057;28;20116;-40
2024/01/29 05:23:16;;;;;;;1.00;0.90;;;;;;;17.24;49.59;97809.13;10367826;28;20437;-35
2024/01/29 05:28:16;;;;;;;2.10;0.80;;;;;;;17.25;49.87;97814.22;10366133;28;20088;-37
2024/01/29 05:33:17;;;;;;;1.70;1.15;;;;;;;17.25;49.84;97813.38;10367962;28;20288;-37
2024/01/29 05:38:17;;;;;;;5.88;1.27;;;;;;;17.29;50.02;97815.13;10365558;28;20032;-40
2024/01/29 05:43:18;;;;;;;1.80;1.00;;;;;;;17.29;50.67;97821.06;10367191;28;20037;-36
2024/01/29 05:48:19;;;;;;;1.60;1.20;;;;;;;17.29;49.63;97827.78;10367242;28;20156;-38
2024/01/29 05:53:20;;;;;;;4.15;1.50;;;;;;;17.29;50.11;97820.19;10364223;28;20033;-38
2024/01/29 05:58:23;;;;;;;2.65;1.15;;;;;;;17.27;49.86;97830.31;10366781;28;20036;-38
2024/01/29 06:03:23;;;;;;;4.60;1.40;;;;;;;17.26;49.81;97826.03;10365766;28;20422;-35
2024/01/29 06:08:23;;;;;;;5.57;2.50;;;;;;;17.25;50.01;97820.97;10365911;28;20044;-35
2024/01/29 06:13:24;;;;;;;5.97;3.10;;;;;;;17.26;49.66;97826.03;10364570;28;20033;-38
2024/01/29 06:18:24;;;;;;;5.80;2.40;;;;;;;17.24;49.30;97821.78;10361777;28;20555;-39
2024/01/29 06:23:25;;;;;;;7.47;3.17;;;;;;;17.20;49.19;97825.06;10362180;28;20380;-38
2024/01/29 06:28:26;;;;;;;9.25;6.38;;;;;;;16.81;47.24;97826.69;10363479;28;20056;-36
2024/01/29 06:33:26;;;;;;;11.97;4.50;;;;;;;16.98;47.84;97833.00;10363437;28;20474;-37
2024/01/29 06:38:26;;;;;;;8.07;4.07;;;;;;;17.04;47.30;97826.41;10364463;28;20113;-36
2024/01/29 06:43:27;;;;;;;9.37;5.00;;;;;;;17.07;47.28;97834.03;10365265;28;20038;-38
2024/01/29 06:48:28;;;;;;;9.57;4.22;;;;;;;17.07;47.49;97828.16;10363802;28;20022;-39
2024/01/29 06:53:31;;;;;;;7.88;4.65;;;;;;;17.05;47.85;97829.75;10364174;28;20377;-36
2024/01/29 06:58:32;;;;;;;8.30;4.97;;;;;;;17.09;47.89;97840.00;10365298;28;20034;-35
2024/01/29 07:03:33;;;;;;;10.00;5.63;;;;;;;17.10;47.75;97849.31;10364048;28;20030;-40
2024/01/29 07:08:33;;;;;;;8.50;5.73;;;;;;;17.08;47.90;97855.16;10363504;28;20382;-38
2024/01/29 07:13:33;;;;;;;10.20;5.97;;;;;;;17.08;47.72;97857.69;10364869;28;20084;-38
2024/01/29 07:18:36;;;;;;;10.97;5.73;;;;;;;17.08;47.75;97860.22;10363076;28;20034;-37
2024/01/29 07:23:36;;;;;;;10.20;6.65;;;;;;;17.08;47.75;97860.22;10363348;28;20680;-35
2024/01/29 07:28:36;;;;;;;8.47;6.27;;;;;;;17.09;48.03;97859.41;10364078;28;20113;-38
2024/01/29 07:33:37;;;;;;;13.23;6.05;;;;;;;17.10;47.91;97861.97;10363240;28;20060;-36
2024/01/29 07:38:37;;;;;;;8.03;5.53;;;;;;;17.09;48.30;97866.97;10362853;28;20030;-39
2024/01/29 07:43:38;;;;;;;11.23;6.10;;;;;;;17.08;48.34;97866.13;10363327;28;20281;-37
2024/01/29 07:48:38;;;;;;;9.18;6.13;;;;;;;17.10;48.15;97868.69;10362680;28;20032;-39
2024/01/29 07:53:39;;;;;;;10.30;6.70;;;;;;;17.11;48.57;97871.28;10362625;28;20025;-40
2024/01/29 07:58:39;;;;;;;9.20;5.97;;;;;;;17.11;48.30;97867.88;10363079;28;20355;-38
2024/01/29 08:03:39;;;;;;;9.13;5.83;;;;;;;17.09;48.31;97872.03;10362267;28;20034;-38
2024/01/29 08:08:40;;;;;;;11.27;6.03;;;;;;;17.10;48.55;97873.75;10361909;28;20084;-37
2024/01/29 08:13:40;;;;;;;9.30;5.95;;;;;;;17.10;48.55;97866.16;10363100;28;20281;-37
2024/01/29 08:18:40;;;;;;;12.83;5.77;;;;;;;17.10;48.23;97873.75;10369314;28;20494;-40
2024/01/29 08:23:41;;;;;;;9.50;5.47;;;;;;;17.09;49.01;97872.03;10369405;28;20038;-37
2024/01/29 08:28:42;;;;;;;11.03;6.10;;;;;;;17.09;48.80;97872.88;10371021;28;20099;-36
2024/01/29 08:33:42;;;;;;;10.50;5.93;;;;;;;17.08;49.10;97870.34;10366727;28;20038;-40
2024/01/29 08:38:42;;;;;;;7.87;5.73;;;;;;;17.07;49.52;97871.16;10369856;28;20034;-36
2024/01/29 08:43:43;;;;;;;8.13;5.78;;;;;;;17.10;49.66;97878.81;10370173;28;20071;-39
2024/01/29 08:48:43;;;;;;;9.23;5.20;;;;;;;17.08;49.28;97883.81;10368923;28;20398;-39
2024/01/29 08:53:44;;;;;;;8.83;5.97;;;;;;;17.07;49.19;97883.81;10366491;28;20402;-40
2024/01/29 08:58:44;;;;;;;8.10;4.43;;;;;;;17.07;48.78;97884.66;10369191;28;20521;-36
2024/01/29 09:03:44;;;;;;;8.00;5.30;;;;;;;17.05;48.35;97877.84;10368805;28;20030;-36
2024/01/29 09:08:45;;;;;;;7.38;4.78;;;;;;;17.06;48.32;97877.03;10368449;28;20300;-37
2024/01/29 09:13:45;;;;;;;7.30;4.38;;;;;;;17.05;48.40;97885.44;10368935;28;20436;-38
2024/01/29 09:18:46;;;;;;;6.07;4.37;;;;;;;17.05;48.35;97886.28;10368317;28;20688;-38
2024/01/29 09:23:46;;;;;;;5.67;4.00;;;;;;;17.06;48.40;97890.53;10367553;28;20042;-35
2024/01/29 09:28:46;;;;;;;6.33;4.43;;;;;;;17.07;48.23;97891.41;10368324;28;20037;-34
2024/01/29 09:33:47;;;;;;;5.00;3.63;;;;;;;17.07;48.43;97891.41;10367667;28;20116;-35
2024/01/29 09:38:47;;;;;;;5.68;4.15;;;;;;;17.06;48.25;97892.22;10366835;28;20083;-38
2024/01/29 09:43:48;;;;;;;5.28;3.92;;;;;;;17.05;48.11;97900.59;10367757;28;20034;-39
2024/01/29 09:48:49;;;;;;;4.82;3.28;;;;;;;17.04;48.12;97906.50;10366322;28;20498;-40
2024/01/29 09:53:54;;;;;;;4.77;4.20;;;;;;;17.03;48.36;97907.31;10363207;28;20030;-35
2024/01/29 09:58:55;;;;;;;4.10;3.00;;;;;;;17.03;48.24;97902.25;10367535;28;20037;-41
2024/01/29 10:03:56;;;;;;;3.35;3.05;;;;;;;17.00;48.00;97913.16;10367002;28;20103;-35
2024/01/29 10:08:57;;;;;;;5.73;3.67;;;;;;;17.01;47.89;97912.34;10365767;28;20374;-37
2024/01/29 10:13:58;;;;;;;4.05;3.20;;;;;;;17.02;47.87;97921.66;10366289;28;20485;-39
2024/01/29 10:19:00;;;;;;;3.42;2.47;;;;;;;17.03;48.02;97919.97;10365697;28;20113;-37
2024/01/29 10:24:01;;;;;;;4.60;3.00;;;;;;;17.02;47.88;97915.72;10365274;28;20033;-38
2024/01/29 10:29:06;;;;;;;5.05;3.10;;;;;;;17.02;47.87;97918.25;10366228;28;20030;-37
2024/01/29 10:34:06;;;;;;;4.10;2.75;;;;;;;17.01;48.13;97903.91;10365331;28;20041;-40
2024/01/29 10:39:08;;;;;;;3.77;2.60;;;;;;;17.03;47.79;97912.38;10363427;28;20374;-40
2024/01/29 10:44:16;;;;;;;3.83;2.80;;;;;;;16.99;47.88;97908.06;10366099;28;20483;-38
2024/01/29 10:49:17;;;;;;;3.35;2.47;;;;;;;17.01;47.87;97909.81;10364492;28;20037;-35
2024/01/29 10:54:18;;;;;;;3.50;2.65;;;;;;;17.00;47.92;97907.25;10364093;28;20037;-38
2024/01/29 10:59:21;;;;;;;3.20;2.47;;;;;;;17.00;48.04;97902.19;10365183;28;20121;-39
2024/01/29 11:04:21;;;;;;;3.58;2.72;;;;;;;17.01;47.99;97906.44;10361254;28;20037;-38
2024/01/29 11:09:24;;;;;;;3.78;2.60;;;;;;;17.01;47.82;97899.72;10364007;28;20559;-36
2024/01/29 11:14:24;;;;;;;5.25;3.05;;;;;;;17.01;48.14;97898.84;10363972;28;20370;-39
2024/01/29 11:19:26;;;;;;;4.25;3.03;;;;;;;17.00;48.10;97897.13;10363715;28;20038;-38
2024/01/29 11:24:27;;;;;;;3.10;2.30;;;;;;;17.00;48.10;97884.47;10363170;28;20042;-37
2024/01/29 11:29:27;;;;;;;4.07;2.65;;;;;;;17.01;47.97;97888.72;10362842;28;20033;-38
2024/01/29 11:34:28;;;;;;;7.77;2.60;;;;;;;17.04;47.73;97886.25;10363458;28;20060;-38
2024/01/29 11:39:28;;;;;;;2.92;2.05;;;;;;;17.04;47.52;97881.19;10362520;28;20037;-37
2024/01/29 11:44:29;;;;;;;3.37;2.50;;;;;;;17.09;47.66;97883.00;10363788;28;20033;-34
2024/01/29 11:49:29;;;;;;;3.10;2.28;;;;;;;17.10;47.90;97878.81;10362525;28;20041;-37
2024/01/29 11:54:31;;;;;;;3.97;2.80;;;;;;;16.97;47.25;97877.66;10361309;28;20749;-37
2024/01/29 11:59:31;;;;;;;3.88;3.38;;;;;;;17.05;47.78;97875.31;10362070;28;20208;-35
2024/01/29 12:04:32;;;;;;;5.03;2.93;;;;;;;17.08;48.39;97877.94;10361616;28;20048;-35
2024/01/29 12:09:35;;;;;;;5.18;3.58;;;;;;;17.10;48.87;97886.41;10361548;28;20304;-39
2024/01/29 12:14:36;;;;;;;6.30;3.97;;;;;;;17.10;48.74;97871.22;10361827;28;20045;-39
2024/01/29 12:19:36;;;;;;;7.25;4.50;;;;;;;17.09;50.26;97877.94;10362241;28;20409;-38
2024/01/29 12:24:37;;;;;;;24.50;5.43;;;;;;;17.13;49.22;97871.28;10361397;28;20769;-40
2024/01/29 12:29:38;;;;;;;16.47;5.00;;;;;;;17.12;49.62;97870.44;10361508;28;20300;-34
2024/01/29 12:34:44;;;;;;;12.48;5.22;;;;;;;17.10;49.95;97856.03;10362069;28;20108;-39
2024/01/29 12:39:51;;;;;;;14.85;5.95;;;;;;;17.11;49.79;97857.75;10355558;28;20124;-37
2024/01/29 12:44:51;;;;;;;10.98;6.50;;;;;;;17.10;50.37;97848.44;10361179;28;20045;-37
2024/01/29 12:49:51;;;;;;;12.43;5.93;;;;;;;17.10;50.17;97853.50;10362439;28;20030;-35
2024/01/29 12:54:56;;;;;;;14.63;8.37;;;;;;;17.07;50.07;97849.22;10360861;28;20042;-36
2024/01/29 12:59:56;;;;;;;10.52;6.05;;;;;;;17.08;49.46;97850.09;10361989;28;20038;-38
2024/01/29 13:04:56;;;;;;;9.97;6.23;;;;;;;17.08;49.34;97850.94;10367500;28;20045;-36
2024/01/29 13:09:57;;;;;;;15.00;6.57;;;;;;;17.08;49.44;97847.56;10367839;28;20056;-38
2024/01/29 13:14:58;;;;;;;10.45;6.88;;;;;;;17.09;49.58;97841.69;10368572;28;20065;-39
2024/01/29 13:19:59;;;;;;;10.90;6.55;;;;;;;17.08;49.44;97832.38;10367827;28;20041;-40
2024/01/29 13:25:00;;;;;;;9.18;6.25;;;;;;;17.08;49.42;97827.31;10367533;28;20037;-37
2024/01/29 13:30:00;;;;;;;8.93;6.40;;;;;;;17.07;49.57;97828.16;10368376;28;20115;-34
2024/01/29 13:35:01;;;;;;;13.63;7.75;;;;;;;17.08;49.33;97829.84;10367856;28;20370;-40
2024/01/29 13:40:02;;;;;;;9.90;7.07;;;;;;;17.07;49.19;97829.00;10367247;28;20044;-41
2024/01/29 13:45:04;;;;;;;8.50;6.63;;;;;;;17.06;49.39;97826.44;10367792;28;20098;-38
2024/01/29 13:50:04;;;;;;;15.18;6.70;;;;;;;17.00;50.36;97831.34;10365682;28;20088;-36
2024/01/29 13:55:05;;;;;;;9.60;6.22;;;;;;;17.05;49.83;97837.34;10365793;28;20449;-35
2024/01/29 14:00:09;;;;;;;8.95;6.18;;;;;;;17.07;49.35;97828.16;10366188;28;20061;-34
2024/01/29 14:05:10;;;;;;;7.47;5.10;;;;;;;17.07;48.80;97823.09;10366596;28;20029;-34
2024/01/29 14:10:11;;;;;;;7.65;4.35;;;;;;;17.09;48.62;97821.44;10365745;28;20041;-41
2024/01/29 14:15:12;;;;;;;6.07;4.75;;;;;;;17.07;49.40;97828.16;10364528;28;20038;-39
2024/01/29 14:20:12;;;;;;;8.38;4.88;;;;;;;17.10;48.71;97828.22;10366796;28;20041;-35
2024/01/29 14:25:12;;;;;;;8.33;4.73;;;;;;;17.09;48.85;97829.03;10356739;28;20037;-37
2024/01/29 14:30:13;;;;;;;8.87;4.33;;;;;;;17.08;48.50;97825.63;10360488;28;20030;-36
2024/01/29 14:35:14;;;;;;;6.18;4.68;;;;;;;17.08;48.50;97822.25;10365380;28;20804;-40
2024/01/29 14:40:15;;;;;;;5.80;3.67;;;;;;;17.07;48.41;97813.81;10364623;28;20570;-38
2024/01/29 14:45:19;;;;;;;5.68;3.72;;;;;;;17.07;48.26;97815.50;10361192;28;20033;-38
2024/01/29 14:50:19;;;;;;;5.55;3.15;;;;;;;17.07;48.15;97813.81;10362089;28;20044;-36
2024/01/29 14:55:20;;;;;;;8.53;3.80;;;;;;;17.07;48.04;97818.88;10355447;28;20030;-36
2024/01/29 15:00:21;;;;;;;4.50;3.20;;;;;;;17.07;48.26;97815.50;10364882;28;20072;-36
2024/01/29 15:05:21;;;;;;;4.25;3.03;;;;;;;17.07;48.23;97820.56;10364005;28;20038;-38
2024/01/29 15:10:21;;;;;;;11.05;3.58;;;;;;;17.06;48.73;97816.31;10363614;28;20042;-38
2024/01/29 15:15:22;;;;;;;6.23;2.93;;;;;;;17.05;48.26;97809.53;10363938;28;20037;-35
2024/01/29 15:20:22;;;;;;;10.43;3.87;;;;;;;17.07;48.45;97808.75;10363066;28;20037;-38
2024/01/29 15:25:23;;;;;;;4.73;2.97;;;;;;;17.08;48.10;97819.72;10360838;28;20041;-39
2024/01/29 15:30:23;;;;;;;4.57;3.20;;;;;;;17.08;49.23;97814.69;10362394;28;20092;-37
2024/01/29 15:35:25;;;;;;;4.60;3.20;;;;;;;17.06;48.00;97821.38;10353126;28;20338;-38
2024/01/29 15:40:25;;;;;;;4.95;2.70;;;;;;;17.05;47.72;97837.34;10358453;28;20449;-37
2024/01/29 15:45:25;;;;;;;5.35;2.90;;;;;;;17.08;47.89;97829.84;10361562;28;20091;-37
2024/01/29 15:50:26;;;;;;;5.30;2.70;;;;;;;17.01;48.29;97828.88;10363645;28;20046;-38
2024/01/29 15:55:26;;;;;;;4.87;2.80;;;;;;;17.06;47.84;97837.41;10362376;28;20398;-35
2024/01/29 16:00:32;;;;;;;5.20;2.60;;;;;;;17.08;47.61;97839.97;10363301;28;20045;-37
2024/01/29 16:05:35;;;;;;;4.32;3.08;;;;;;;17.06;48.13;97857.63;10362811;28;20475;-39
2024/01/29 16:10:36;;;;;;;7.63;2.75;;;;;;;17.01;49.00;97865.94;10360295;28;20034;-38
2024/01/29 16:15:37;;;;;;;3.78;2.58;;;;;;;17.06;47.86;97872.00;10361775;28;20045;-39
2024/01/29 16:20:41;;;;;;;3.67;2.22;;;;;;;17.06;47.52;97877.88;10362580;28;20525;-39
2024/01/29 16:25:41;;;;;;;7.90;4.00;;;;;;;17.01;52.10;97876.06;10361815;28;20099;-40
2024/01/29 16:30:42;;;;;;;5.13;3.92;;;;;;;17.01;52.01;97883.66;10362348;28;20087;-39
2024/01/29 16:35:43;;;;;;;6.65;3.63;;;;;;;16.93;52.33;97875.91;10361454;28;20086;-38
2024/01/29 16:40:43;;;;;;;18.90;4.50;;;;;;;16.98;50.31;97888.66;10369474;28;20030;-41
2024/01/29 16:45:44;;;;;;;5.83;3.70;;;;;;;16.94;51.51;97902.03;10368986;28;20029;-40
2024/01/29 16:50:44;;;;;;;6.63;3.83;;;;;;;16.99;53.33;97895.41;10370356;28;20034;-41
2024/01/29 16:55:45;;;;;;;5.78;3.40;;;;;;;17.00;53.23;97912.31;10366464;28;20029;-38
2024/01/29 17:00:45;;;;;;;5.35;4.03;;;;;;;17.01;53.29;97909.81;10369382;28;20038;-36
2024/01/29 17:05:46;;;;;;;6.25;4.20;;;;;;;17.01;53.88;97914.88;10368431;28;20042;-35
2024/01/29 17:10:46;;;;;;;6.90;4.30;;;;;;;17.04;51.90;97914.06;10368225;28;20049;-38
2024/01/29 17:15:47;;;;;;;6.20;3.63;;;;;;;17.03;53.77;97910.72;10367416;28;20410;-37
2024/01/29 17:20:47;;;;;;;7.25;5.03;;;;;;;17.03;54.30;97917.44;10368189;28;20513;-37
2024/01/29 17:25:47;;;;;;;8.23;4.03;;;;;;;17.02;54.32;97910.66;10367350;28;20112;-40
2024/01/29 17:30:48;;;;;;;6.33;3.93;;;;;;;17.02;54.00;97910.66;10367436;28;20434;-39
2024/01/29 17:35:48;;;;;;;9.57;4.33;;;;;;;17.01;53.52;97906.44;10368389;28;20371;-38
2024/01/29 17:40:48;;;;;;;7.40;4.23;;;;;;;17.01;53.56;97903.91;10364869;28;20293;-38
2024/01/29 17:45:49;;;;;;;7.50;4.13;;;;;;;17.01;53.79;97911.50;10367592;28;20037;-36
2024/01/29 17:50:50;;;;;;;5.22;3.65;;;;;;;16.99;53.39;97910.59;10366936;28;20128;-37
2024/01/29 17:55:50;;;;;;;5.25;3.78;;;;;;;16.98;53.47;97919.00;10366306;28;20038;-38
2024/01/29 18:00:51;;;;;;;9.97;4.67;;;;;;;17.01;53.44;97914.00;10367567;28;20030;-39
2024/01/29 18:05:51;;;;;;;4.80;3.23;;;;;;;17.11;49.35;97908.34;10366211;28;20037;-36
2024/01/29 18:10:51;;;;;;;5.53;3.20;;;;;;;17.16;48.96;97909.34;10365344;28;20041;-35
2024/01/29 18:15:52;;;;;;;7.47;3.38;;;;;;;17.17;48.70;97906.81;10366877;28;20300;-38
2024/01/29 18:20:52;;;;;;;13.13;3.20;;;;;;;17.12;49.25;97917.66;10365550;28;20052;-40
2024/01/29 18:25:52;;;;;;;11.00;2.47;;;;;;;17.19;48.38;97919.53;10364716;28;20042;-38
2024/01/29 18:30:53;;;;;;;7.10;2.83;;;;;;;17.20;48.50;97917.03;10365759;28;20045;-40
2024/01/29 18:35:53;;;;;;;7.07;3.17;;;;;;;17.20;49.19;97922.09;10364662;28;20487;-38
2024/01/29 18:40:54;;;;;;;7.17;2.50;;;;;;;17.19;48.55;97920.38;10364270;28;20113;-36
2024/01/29 18:45:54;;;;;;;14.83;2.90;;;;;;;17.21;48.03;97922.94;10364088;28;20423;-40
2024/01/29 18:50:54;;;;;;;4.77;2.87;;;;;;;17.16;48.31;97938.00;10365530;28;20036;-39
2024/01/29 18:55:58;;;;;;;7.80;3.53;;;;;;;17.21;50.99;97935.59;10363342;28;20565;-34
2024/01/29 19:00:58;;;;;;;6.70;2.63;;;;;;;17.22;48.91;97930.56;10363209;28;20037;-38
2024/01/29 19:05:59;;;;;;;5.67;2.87;;;;;;;17.23;48.58;97931.44;10364834;28;20057;-38
2024/01/29 19:10:59;;;;;;;8.13;2.53;;;;;;;17.23;48.51;97939.03;10363292;28;20405;-40
2024/01/29 19:15:59;;;;;;;4.63;2.93;;;;;;;17.22;48.20;97949.94;10363402;28;20418;-35
2024/01/29 19:21:00;;;;;;;7.33;2.40;;;;;;;17.23;48.18;97946.63;10363487;28;20698;-38
2024/01/29 19:26:00;;;;;;;7.40;2.83;;;;;;;17.23;47.72;97944.09;10359731;28;20105;-36
2024/01/29 19:31:01;;;;;;;3.67;2.20;;;;;;;17.24;47.65;97933.16;10361851;28;20050;-35
2024/01/29 19:36:02;;;;;;;5.43;2.60;;;;;;;17.23;47.66;97936.50;10363458;28;20034;-37
2024/01/29 19:41:02;;;;;;;4.07;2.22;;;;;;;17.23;47.90;97941.56;10363182;28;20088;-38
2024/01/29 19:46:03;;;;;;;3.95;2.10;;;;;;;17.19;47.42;97943.16;10362156;28;20124;-38
2024/01/29 19:51:03;;;;;;;4.00;2.17;;;;;;;17.21;47.29;97948.25;10362464;28;20049;-41
2024/01/29 19:56:04;;;;;;;7.78;3.15;;;;;;;17.21;49.04;97943.19;10362213;28;20050;-34
2024/01/29 20:01:04;;;;;;;22.02;3.33;;;;;;;17.16;48.75;97930.41;10361011;28;20410;-38
2024/01/29 20:06:05;;;;;;;14.77;2.67;;;;;;;17.27;49.03;97941.69;10357106;28;20030;-35
2024/01/29 20:11:06;;;;;;;13.50;2.45;;;;;;;17.25;48.35;97945.81;10360072;28;20092;-36
2024/01/29 20:16:06;;;;;;;5.20;2.33;;;;;;;17.26;47.08;97937.41;10368963;28;20045;-38
2024/01/29 20:21:07;;;;;;;2.83;1.90;;;;;;;17.24;46.77;97948.34;10371040;28;20285;-37
2024/01/29 20:26:08;;;;;;;3.70;1.77;;;;;;;17.25;46.58;97944.97;10368773;28;20044;-38
2024/01/29 20:31:08;;;;;;;5.70;2.07;;;;;;;17.26;46.66;97939.09;10370714;28;20034;-37
2024/01/29 20:36:08;;;;;;;4.18;2.33;;;;;;;17.27;46.29;97945.88;10369246;28;20490;-40
2024/01/29 20:41:09;;;;;;;4.07;1.87;;;;;;;17.25;46.21;97950.03;10363875;28;20045;-39
2024/01/29 20:46:09;;;;;;;2.67;1.90;;;;;;;17.22;45.80;97929.69;10366693;28;20089;-38
2024/01/29 20:51:11;;;;;;;5.60;2.20;;;;;;;17.24;45.76;97943.28;10369160;28;20413;-39
2024/01/29 20:56:11;;;;;;;2.33;1.70;;;;;;;17.22;45.90;97955.00;10368319;28;20564;-40
2024/01/29 21:01:12;;;;;;;4.20;2.40;;;;;;;17.21;45.90;97950.78;10368662;28;20038;-39
2024/01/29 21:06:12;;;;;;;5.43;2.20;;;;;;;17.22;45.71;97955.88;10369224;28;20049;-36
2024/01/29 21:11:13;;;;;;;3.53;2.00;;;;;;;17.20;45.55;97957.53;10366671;28;20042;-39
2024/01/29 21:16:16;;;;;;;4.28;1.63;;;;;;;17.22;45.53;97955.00;10363890;28;20036;-38
2024/01/29 21:21:17;;;;;;;3.17;1.80;;;;;;;17.21;45.13;97946.59;10363017;28;20478;-39
2024/01/29 21:26:25;;;;;;;1.77;1.40;;;;;;;17.20;45.19;97949.94;10365043;28;20084;-38
2024/01/29 21:31:26;;;;;;;2.78;1.70;;;;;;;17.17;45.38;97952.38;10366752;28;20033;-37
2024/01/29 21:36:28;;;;;;;2.97;1.50;;;;;;;17.17;45.07;97942.25;10368068;28;20041;-37
2024/01/29 21:41:28;;;;;;;2.28;1.33;;;;;;;17.16;45.70;97937.16;10367252;28;20049;-39
2024/01/29 21:46:29;;;;;;;2.70;1.43;;;;;;;17.14;45.33;97949.78;10366756;28;20030;-38
2024/01/29 21:51:33;;;;;;;2.00;1.50;;;;;;;17.14;45.08;97941.34;10367919;28;20041;-40
2024/01/29 21:56:38;;;;;;;2.03;1.65;;;;;;;17.12;45.35;97946.34;10366321;28;20030;-35
2024/01/29 22:01:39;;;;;;;1.42;1.17;;;;;;;17.12;45.16;97943.81;10366191;28;20520;-38
2024/01/29 22:06:39;;;;;;;1.98;1.10;;;;;;;17.11;45.10;97947.19;10366017;28;20041;-36
2024/01/29 22:11:39;;;;;;;2.40;1.40;;;;;;;17.10;44.93;97940.41;10367053;28;20477;-37
2024/01/29 22:16:40;;;;;;;1.53;1.20;;;;;;;17.10;44.78;97944.59;10365593;28;20561;-38
2024/01/29 22:21:51;;;;;;;1.27;1.15;;;;;;;17.10;44.77;97957.25;10365100;28;20116;-37
2024/01/29 22:26:52;;;;;;;1.17;1.08;;;;;;;17.08;44.28;97956.38;10363224;28;20041;-37
2024/01/29 22:31:52;;;;;;;1.40;1.15;;;;;;;17.09;44.50;97943.72;10366004;28;20084;-35
2024/01/29 22:36:53;;;;;;;2.03;1.33;;;;;;;17.09;44.71;97947.94;10364290;28;20040;-39
2024/01/29 22:41:53;;;;;;;3.70;1.67;;;;;;;17.08;44.42;97957.22;10365606;28;20046;-37
2024/01/29 22:46:53;;;;;;;1.70;1.40;;;;;;;17.08;44.46;97956.38;10364497;28;20026;-37
2024/01/29 22:51:54;;;;;;;1.27;1.00;;;;;;;17.08;44.31;97961.44;10364578;28;20045;-38
2024/01/29 22:56:54;;;;;;;2.27;1.10;;;;;;;17.07;44.67;97959.72;10365414;28;20034;-38
2024/01/29 23:01:54;;;;;;;1.33;1.23;;;;;;;17.07;44.46;97969.84;10364403;28;20038;-38
2024/01/29 23:06:55;;;;;;;1.27;1.07;;;;;;;17.06;44.46;97968.13;10363712;28;20034;-39
2024/01/29 23:11:58;;;;;;;1.17;0.83;;;;;;;17.07;44.32;97977.44;10362369;28;20048;-38
2024/01/29 23:16:59;;;;;;;1.67;1.00;;;;;;;17.04;44.46;97979.88;10363231;28;20038;-36